Echo, UT (84024)

4:05 PM MDT on July 25, 2016 (GMT -0600)
Beacon Hill | | Change Station

Elev 5686 ft 40.91 °N, 111.39 °W | Updated 1 second ago

Clear
Clear
91.2 °F
Feels Like 87 °F
N
8.3
Wind Variable Wind from NNW
Gusts 9.8 mph

Today
High -- | Low -- °F
--% Chance of Precip.
Yesterday
High -- | Low -- °F
Precip. -- in
Pressure 29.93 in
Visibility 10.0 miles
Clouds Clear
Heat Index 87 °F
Dew Point 27 °F
Humidity 10%
Rainfall 0.00 in
Snow Depth Not available.
6:15 AM 8:48 PM
Waning Gibbous, 62% visible
METAR KEVW 252153Z AUTO 25017G23KT 10SM CLR 32/M03 A3026 RMK AO2 PK WND 26028/2141 SLP134 T03221033
Pressure 29.93 in
Visibility 10.0 miles
Clouds Clear
Heat Index 87 °F
Dew Point 27 °F
Humidity 10%
Rainfall 0.00 in
Snow Depth Not available.
6:15 AM 8:48 PM
Waning Gibbous, 62% visible
METAR KEVW 252153Z AUTO 25017G23KT 10SM CLR 32/M03 A3026 RMK AO2 PK WND 26028/2141 SLP134 T03221033

10-Day Weather Forecast

Almanac

Astronomy

Jul. 25, 2016 Rise Set
Actual Time
Civil Twilight
Nautical Twilight
Astronomical Twilight
Moon
Length of Visible Light
Length of Day
Tomorrow will be .
, % of the Moon is Illuminated

Today's Extremes

State Highs State Lows

Community

WunderPhotos

Upload Photos

1,927,426 photos uploaded!

WunderBlog® & News

Nearby

Air Quality

  Air Quality AQ Index Pollutant
Not available.

Snow Depth

Station Depth Elevation

Earthquake Activity

City Distance Mag. Time & Date
Minimum magnitude displayed is 2.5.

Coastal Water Temperatures

Place Temperature

Stations

Nearby Weather Stations

Station Location Temp. Windchill Dew Point Humidity Wind Precip. Elev Updated Type
                   

Watches & Warnings

There are currently no watches in effect.